sensor_id;sensor_type;location;lat;lon;timestamp;pressure;altitude;pressure_sealevel;temperature;humidity
6096;BME280;25081;42.698;23.298;2023-08-06T00:01:33;94127.47;;;18.85;97.27
6096;BME280;25081;42.698;23.298;2023-08-06T00:03:43;94109.80;;;18.76;97.09
6096;BME280;25081;42.698;23.298;2023-08-06T00:05:54;94111.27;;;18.69;97.66
6096;BME280;25081;42.698;23.298;2023-08-06T00:08:05;94111.27;;;18.69;97.66
6096;BME280;25081;42.698;23.298;2023-08-06T00:10:15;94157.08;;;19.34;94.67
6096;BME280;25081;42.698;23.298;2023-08-06T00:12:26;94154.48;;;19.42;92.41
6096;BME280;25081;42.698;23.298;2023-08-06T00:14:37;94148.41;;;19.76;89.77
6096;BME280;25081;42.698;23.298;2023-08-06T00:16:47;94153.91;;;20.68;84.94
6096;BME280;25081;42.698;23.298;2023-08-06T00:18:58;94147.13;;;21.41;80.72
6096;BME280;25081;42.698;23.298;2023-08-06T00:21:08;94139.16;;;22.02;77.71
6096;BME280;25081;42.698;23.298;2023-08-06T00:23:18;94129.69;;;22.45;75.16
6096;BME280;25081;42.698;23.298;2023-08-06T00:25:29;94123.06;;;22.22;76.31
6096;BME280;25081;42.698;23.298;2023-08-06T00:27:39;94130.24;;;22.27;75.16
6096;BME280;25081;42.698;23.298;2023-08-06T00:29:50;94139.75;;;22.53;74.66
6096;BME280;25081;42.698;23.298;2023-08-06T00:32:00;94144.16;;;22.43;74.89
6096;BME280;25081;42.698;23.298;2023-08-06T00:34:11;94133.27;;;22.69;73.70
6096;BME280;25081;42.698;23.298;2023-08-06T00:36:21;94122.38;;;22.86;72.54
6096;BME280;25081;42.698;23.298;2023-08-06T00:38:32;94110.86;;;22.80;72.31
6096;BME280;25081;42.698;23.298;2023-08-06T00:40:42;94099.64;;;22.59;72.76
6096;BME280;25081;42.698;23.298;2023-08-06T00:42:53;94103.03;;;22.21;73.25
6096;BME280;25081;42.698;23.298;2023-08-06T00:45:05;94100.00;;;21.77;75.37
6096;BME280;25081;42.698;23.298;2023-08-06T00:47:15;94100.78;;;21.68;76.01
6096;BME280;25081;42.698;23.298;2023-08-06T00:49:27;94111.05;;;22.06;75.55
6096;BME280;25081;42.698;23.298;2023-08-06T00:51:37;94106.56;;;21.84;75.95
6096;BME280;25081;42.698;23.298;2023-08-06T00:53:48;94110.11;;;22.19;74.65
6096;BME280;25081;42.698;23.298;2023-08-06T00:55:58;94101.45;;;22.69;72.81
6096;BME280;25081;42.698;23.298;2023-08-06T00:58:08;94096.07;;;22.75;71.96
6096;BME280;25081;42.698;23.298;2023-08-06T01:00:19;94086.50;;;22.78;72.44
6096;BME280;25081;42.698;23.298;2023-08-06T01:02:30;94089.86;;;22.66;72.59
6096;BME280;25081;42.698;23.298;2023-08-06T01:04:40;94093.15;;;22.57;73.23
6096;BME280;25081;42.698;23.298;2023-08-06T01:06:56;94090.24;;;23.11;70.73
6096;BME280;25081;42.698;23.298;2023-08-06T01:09:05;94079.70;;;22.78;72.45
6096;BME280;25081;42.698;23.298;2023-08-06T01:11:19;94070.49;;;22.36;73.85
6096;BME280;25081;42.698;23.298;2023-08-06T01:13:31;94047.25;;;22.73;72.72
6096;BME280;25081;42.698;23.298;2023-08-06T01:15:41;94049.02;;;23.16;70.76
6096;BME280;25081;42.698;23.298;2023-08-06T01:17:50;94065.13;;;22.59;72.91
6096;BME280;25081;42.698;23.298;2023-08-06T01:20:01;94070.81;;;22.43;73.34
6096;BME280;25081;42.698;23.298;2023-08-06T01:22:11;94070.42;;;22.79;72.53
6096;BME280;25081;42.698;23.298;2023-08-06T01:24:22;94072.34;;;22.78;72.95
6096;BME280;25081;42.698;23.298;2023-08-06T01:26:33;94072.36;;;23.02;71.71
6096;BME280;25081;42.698;23.298;2023-08-06T01:28:46;94063.11;;;23.32;70.75
6096;BME280;25081;42.698;23.298;2023-08-06T01:30:55;94057.70;;;23.09;71.27
6096;BME280;25081;42.698;23.298;2023-08-06T01:33:06;94057.81;;;23.21;71.29
6096;BME280;25081;42.698;23.298;2023-08-06T01:35:17;94053.12;;;23.30;70.40
6096;BME280;25081;42.698;23.298;2023-08-06T01:37:28;94050.92;;;23.38;70.04
6096;BME280;25081;42.698;23.298;2023-08-06T01:39:39;94043.05;;;23.46;70.09
6096;BME280;25081;42.698;23.298;2023-08-06T01:41:49;94046.50;;;23.25;70.54
6096;BME280;25081;42.698;23.298;2023-08-06T01:43:59;94046.57;;;22.20;75.41
6096;BME280;25081;42.698;23.298;2023-08-06T01:46:10;94050.09;;;22.12;75.81
6096;BME280;25081;42.698;23.298;2023-08-06T01:48:20;94050.38;;;22.02;76.77
6096;BME280;25081;42.698;23.298;2023-08-06T01:50:31;94049.47;;;22.39;74.85
6096;BME280;25081;42.698;23.298;2023-08-06T01:52:41;94043.03;;;22.69;73.57
6096;BME280;25081;42.698;23.298;2023-08-06T01:54:52;94048.94;;;22.71;73.27
6096;BME280;25081;42.698;23.298;2023-08-06T01:57:02;94056.45;;;22.34;74.77
6096;BME280;25081;42.698;23.298;2023-08-06T01:59:13;94056.03;;;22.38;74.91
6096;BME280;25081;42.698;23.298;2023-08-06T02:01:23;94046.36;;;22.75;73.45
6096;BME280;25081;42.698;23.298;2023-08-06T02:03:33;94044.20;;;22.74;73.48
6096;BME280;25081;42.698;23.298;2023-08-06T02:05:44;94033.59;;;22.67;73.46
6096;BME280;25081;42.698;23.298;2023-08-06T02:07:55;94021.67;;;22.50;74.38
6096;BME280;25081;42.698;23.298;2023-08-06T02:10:07;94030.69;;;21.16;79.72
6096;BME280;25081;42.698;23.298;2023-08-06T02:12:18;94024.80;;;21.42;80.14
6096;BME280;25081;42.698;23.298;2023-08-06T02:14:29;94026.59;;;22.16;76.50
6096;BME280;25081;42.698;23.298;2023-08-06T02:16:39;94029.99;;;22.37;75.10
6096;BME280;25081;42.698;23.298;2023-08-06T02:18:50;94032.08;;;21.79;77.82
6096;BME280;25081;42.698;23.298;2023-08-06T02:21:00;94033.91;;;21.55;78.77
6096;BME280;25081;42.698;23.298;2023-08-06T02:23:11;94044.53;;;21.63;78.52
6096;BME280;25081;42.698;23.298;2023-08-06T02:25:21;94055.37;;;21.54;79.83
6096;BME280;25081;42.698;23.298;2023-08-06T02:27:31;94065.03;;;21.66;79.56
6096;BME280;25081;42.698;23.298;2023-08-06T02:29:42;94074.52;;;22.12;77.45
6096;BME280;25081;42.698;23.298;2023-08-06T02:31:53;94056.98;;;21.90;79.45
6096;BME280;25081;42.698;23.298;2023-08-06T02:34:03;94047.22;;;21.46;82.29
6096;BME280;25081;42.698;23.298;2023-08-06T02:36:13;94035.77;;;20.89;85.21
6096;BME280;25081;42.698;23.298;2023-08-06T02:38:24;94033.30;;;20.70;84.78
6096;BME280;25081;42.698;23.298;2023-08-06T02:40:34;94053.12;;;19.54;90.31
6096;BME280;25081;42.698;23.298;2023-08-06T02:42:45;94074.95;;;19.32;93.90
6096;BME280;25081;42.698;23.298;2023-08-06T02:44:56;94082.20;;;19.73;93.39
6096;BME280;25081;42.698;23.298;2023-08-06T02:47:07;94096.39;;;20.26;90.04
6096;BME280;25081;42.698;23.298;2023-08-06T02:49:17;94095.33;;;20.49;88.69
6096;BME280;25081;42.698;23.298;2023-08-06T02:51:28;94091.70;;;20.07;90.73
6096;BME280;25081;42.698;23.298;2023-08-06T02:53:38;94086.22;;;19.87;93.05
6096;BME280;25081;42.698;23.298;2023-08-06T02:55:49;94063.84;;;20.06;92.44
6096;BME280;25081;42.698;23.298;2023-08-06T02:57:59;94046.52;;;20.29;91.24
6096;BME280;25081;42.698;23.298;2023-08-06T03:00:11;94021.39;;;20.80;87.52
6096;BME280;25081;42.698;23.298;2023-08-06T03:02:22;94022.15;;;20.92;85.39
6096;BME280;25081;42.698;23.298;2023-08-06T03:04:32;94016.55;;;20.37;87.50
6096;BME280;25081;42.698;23.298;2023-08-06T03:06:43;94027.38;;;20.37;88.89
6096;BME280;25081;42.698;23.298;2023-08-06T03:08:54;94036.81;;;20.17;90.47
6096;BME280;25081;42.698;23.298;2023-08-06T03:11:04;94014.69;;;19.57;92.46
6096;BME280;25081;42.698;23.298;2023-08-06T03:13:15;93979.95;;;19.50;94.64
6096;BME280;25081;42.698;23.298;2023-08-06T03:15:25;93970.48;;;19.50;93.85
6096;BME280;25081;42.698;23.298;2023-08-06T03:17:36;94019.39;;;19.51;92.85
6096;BME280;25081;42.698;23.298;2023-08-06T03:19:46;94050.83;;;19.47;95.70
6096;BME280;25081;42.698;23.298;2023-08-06T03:21:56;94024.36;;;19.22;95.27
6096;BME280;25081;42.698;23.298;2023-08-06T03:24:07;93994.45;;;18.91;97.14
6096;BME280;25081;42.698;23.298;2023-08-06T03:26:17;93993.54;;;19.09;98.58
6096;BME280;25081;42.698;23.298;2023-08-06T03:28:28;94002.33;;;19.39;96.16
6096;BME280;25081;42.698;23.298;2023-08-06T03:30:38;94016.98;;;19.97;93.70
6096;BME280;25081;42.698;23.298;2023-08-06T03:32:49;94021.59;;;20.30;91.55
6096;BME280;25081;42.698;23.298;2023-08-06T03:34:59;94033.34;;;20.37;91.35
6096;BME280;25081;42.698;23.298;2023-08-06T03:37:10;94036.20;;;19.98;91.53
6096;BME280;25081;42.698;23.298;2023-08-06T03:39:20;94057.03;;;19.48;94.32
6096;BME280;25081;42.698;23.298;2023-08-06T03:41:31;94066.64;;;19.15;95.52
6096;BME280;25081;42.698;23.298;2023-08-06T03:43:41;94072.23;;;18.91;96.72
6096;BME280;25081;42.698;23.298;2023-08-06T03:45:52;94055.34;;;18.85;98.32
6096;BME280;25081;42.698;23.298;2023-08-06T03:48:03;94066.48;;;19.09;98.75
6096;BME280;25081;42.698;23.298;2023-08-06T03:50:13;94070.20;;;19.13;96.33
6096;BME280;25081;42.698;23.298;2023-08-06T03:52:24;94062.32;;;19.41;95.81
6096;BME280;25081;42.698;23.298;2023-08-06T03:54:34;94057.02;;;19.86;93.38
6096;BME280;25081;42.698;23.298;2023-08-06T03:56:45;94060.65;;;20.26;91.11
6096;BME280;25081;42.698;23.298;2023-08-06T03:58:55;94065.83;;;20.59;89.22
6096;BME280;25081;42.698;23.298;2023-08-06T04:01:06;94067.44;;;20.38;89.77
6096;BME280;25081;42.698;23.298;2023-08-06T04:03:17;94059.73;;;20.31;90.52
6096;BME280;25081;42.698;23.298;2023-08-06T04:05:27;94070.73;;;20.35;90.69
6096;BME280;25081;42.698;23.298;2023-08-06T04:07:37;94065.08;;;20.34;91.43
6096;BME280;25081;42.698;23.298;2023-08-06T04:09:56;94068.91;;;20.66;89.21
6096;BME280;25081;42.698;23.298;2023-08-06T04:12:07;94074.89;;;20.74;88.49
6096;BME280;25081;42.698;23.298;2023-08-06T04:14:17;94076.86;;;20.82;87.47
6096;BME280;25081;42.698;23.298;2023-08-06T04:16:28;94079.95;;;20.78;88.13
6096;BME280;25081;42.698;23.298;2023-08-06T04:18:38;94085.14;;;20.33;90.76
6096;BME280;25081;42.698;23.298;2023-08-06T04:20:49;94088.97;;;20.09;92.47
6096;BME280;25081;42.698;23.298;2023-08-06T04:22:59;94087.16;;;20.05;93.93
6096;BME280;25081;42.698;23.298;2023-08-06T04:25:10;94075.78;;;20.16;92.55
6096;BME280;25081;42.698;23.298;2023-08-06T04:27:21;94074.76;;;20.37;91.76
6096;BME280;25081;42.698;23.298;2023-08-06T04:29:31;94069.05;;;20.50;90.84
6096;BME280;25081;42.698;23.298;2023-08-06T04:31:42;94067.55;;;20.55;90.62
6096;BME280;25081;42.698;23.298;2023-08-06T04:33:53;94057.92;;;21.11;87.41
6096;BME280;25081;42.698;23.298;2023-08-06T04:36:04;94054.98;;;21.10;86.92
6096;BME280;25081;42.698;23.298;2023-08-06T04:38:14;94056.50;;;20.94;87.24
6096;BME280;25081;42.698;23.298;2023-08-06T04:40:25;94046.50;;;20.83;87.11
6096;BME280;25081;42.698;23.298;2023-08-06T04:42:35;94048.17;;;20.81;88.45
6096;BME280;25081;42.698;23.298;2023-08-06T04:44:46;94040.25;;;21.13;87.64
6096;BME280;25081;42.698;23.298;2023-08-06T04:46:57;94029.67;;;20.95;87.49
6096;BME280;25081;42.698;23.298;2023-08-06T04:49:07;94028.55;;;20.96;87.28
6096;BME280;25081;42.698;23.298;2023-08-06T04:51:18;94016.12;;;20.44;89.19
6096;BME280;25081;42.698;23.298;2023-08-06T04:53:28;94014.09;;;20.16;92.19
6096;BME280;25081;42.698;23.298;2023-08-06T04:55:39;94011.70;;;20.48;91.89
6096;BME280;25081;42.698;23.298;2023-08-06T04:57:49;94005.84;;;20.94;89.71
6096;BME280;25081;42.698;23.298;2023-08-06T04:59:59;93996.98;;;21.65;85.10
6096;BME280;25081;42.698;23.298;2023-08-06T05:02:10;93988.10;;;21.88;82.62
6096;BME280;25081;42.698;23.298;2023-08-06T05:04:20;93989.64;;;21.75;83.88
6096;BME280;25081;42.698;23.298;2023-08-06T05:06:31;93991.14;;;21.78;83.29
6096;BME280;25081;42.698;23.298;2023-08-06T05:08:41;93987.48;;;21.91;82.72
6096;BME280;25081;42.698;23.298;2023-08-06T05:10:52;93994.94;;;22.29;81.41
6096;BME280;25081;42.698;23.298;2023-08-06T05:13:02;93992.00;;;22.60;79.82
6096;BME280;25081;42.698;23.298;2023-08-06T05:15:12;93986.64;;;22.81;78.46
6096;BME280;25081;42.698;23.298;2023-08-06T05:17:23;93991.91;;;23.16;77.65
6096;BME280;25081;42.698;23.298;2023-08-06T05:19:34;93991.38;;;24.41;72.39
6096;BME280;25081;42.698;23.298;2023-08-06T05:21:44;93994.53;;;24.89;69.79
6096;BME280;25081;42.698;23.298;2023-08-06T05:23:55;93996.38;;;25.58;67.07
6096;BME280;25081;42.698;23.298;2023-08-06T05:26:05;94002.50;;;25.79;66.13
6096;BME280;25081;42.698;23.298;2023-08-06T05:28:16;93997.29;;;26.36;64.13
6096;BME280;25081;42.698;23.298;2023-08-06T05:30:26;93996.19;;;26.53;62.63
6096;BME280;25081;42.698;23.298;2023-08-06T05:32:37;93995.87;;;27.08;61.94
6096;BME280;25081;42.698;23.298;2023-08-06T05:34:47;94000.94;;;26.40;63.51
6096;BME280;25081;42.698;23.298;2023-08-06T05:36:58;94000.25;;;26.09;64.71
6096;BME280;25081;42.698;23.298;2023-08-06T05:39:08;94000.07;;;26.52;64.01
6096;BME280;25081;42.698;23.298;2023-08-06T05:41:19;93989.69;;;27.52;60.14
6096;BME280;25081;42.698;23.298;2023-08-06T05:43:29;93987.75;;;28.27;57.61
6096;BME280;25081;42.698;23.298;2023-08-06T05:45:40;93978.25;;;27.91;56.98
6096;BME280;25081;42.698;23.298;2023-08-06T05:47:50;93976.54;;;27.17;59.91
6096;BME280;25081;42.698;23.298;2023-08-06T05:50:01;93972.86;;;26.87;59.80
6096;BME280;25081;42.698;23.298;2023-08-06T05:52:11;93981.47;;;27.27;59.02
6096;BME280;25081;42.698;23.298;2023-08-06T05:54:22;93997.66;;;26.01;61.43
6096;BME280;25081;42.698;23.298;2023-08-06T05:56:32;93991.21;;;26.15;61.21
6096;BME280;25081;42.698;23.298;2023-08-06T05:58:43;94002.06;;;26.33;60.96
6096;BME280;25081;42.698;23.298;2023-08-06T06:00:54;93999.30;;;27.36;59.04
6096;BME280;25081;42.698;23.298;2023-08-06T06:03:05;94004.39;;;27.79;56.63
6096;BME280;25081;42.698;23.298;2023-08-06T06:05:15;94004.72;;;28.13;56.49
6096;BME280;25081;42.698;23.298;2023-08-06T06:07:26;94007.56;;;27.56;55.97
6096;BME280;25081;42.698;23.298;2023-08-06T06:09:36;94012.00;;;28.15;55.73
6096;BME280;25081;42.698;23.298;2023-08-06T06:11:47;94015.22;;;28.88;53.97
6096;BME280;25081;42.698;23.298;2023-08-06T06:13:57;94021.20;;;28.84;52.78
6096;BME280;25081;42.698;23.298;2023-08-06T06:16:08;94014.38;;;29.92;49.13
6096;BME280;25081;42.698;23.298;2023-08-06T06:18:19;94014.63;;;30.40;48.58
6096;BME280;25081;42.698;23.298;2023-08-06T06:20:31;94016.37;;;30.56;47.88
6096;BME280;25081;42.698;23.298;2023-08-06T06:22:39;94023.07;;;30.25;46.71
6096;BME280;25081;42.698;23.298;2023-08-06T06:24:50;94030.53;;;30.58;46.84
6096;BME280;25081;42.698;23.298;2023-08-06T06:27:01;94040.16;;;30.24;46.64
6096;BME280;25081;42.698;23.298;2023-08-06T06:29:11;94049.14;;;29.81;46.78
6096;BME280;25081;42.698;23.298;2023-08-06T06:31:22;94050.09;;;27.75;52.55
6096;BME280;25081;42.698;23.298;2023-08-06T06:33:32;94060.62;;;27.26;54.96
6096;BME280;25081;42.698;23.298;2023-08-06T06:35:43;94054.16;;;26.59;57.71
6096;BME280;25081;42.698;23.298;2023-08-06T06:37:53;94065.81;;;26.03;60.01
6096;BME280;25081;42.698;23.298;2023-08-06T06:40:06;94063.80;;;25.15;62.65
6096;BME280;25081;42.698;23.298;2023-08-06T06:42:16;94070.72;;;25.06;61.60
6096;BME280;25081;42.698;23.298;2023-08-06T06:44:27;94078.16;;;24.84;62.84
6096;BME280;25081;42.698;23.298;2023-08-06T06:46:37;94081.97;;;24.32;65.27
6096;BME280;25081;42.698;23.298;2023-08-06T06:48:48;94083.83;;;24.25;65.47
6096;BME280;25081;42.698;23.298;2023-08-06T06:50:58;94090.70;;;23.96;65.79
6096;BME280;25081;42.698;23.298;2023-08-06T06:53:09;94094.95;;;23.70;67.00
6096;BME280;25081;42.698;23.298;2023-08-06T06:55:19;94092.33;;;23.44;68.02
6096;BME280;25081;42.698;23.298;2023-08-06T06:57:30;94095.25;;;23.39;68.54
6096;BME280;25081;42.698;23.298;2023-08-06T06:59:40;94097.17;;;23.38;69.14
6096;BME280;25081;42.698;23.298;2023-08-06T07:01:51;94102.70;;;23.51;68.50
6096;BME280;25081;42.698;23.298;2023-08-06T07:04:01;94098.92;;;23.73;68.17
6096;BME280;25081;42.698;23.298;2023-08-06T07:06:12;94111.41;;;23.88;67.17
6096;BME280;25081;42.698;23.298;2023-08-06T07:08:23;94105.93;;;23.44;67.44
6096;BME280;25081;42.698;23.298;2023-08-06T07:10:33;94116.14;;;23.18;68.25
6096;BME280;25081;42.698;23.298;2023-08-06T07:12:43;94116.91;;;23.27;68.75
6096;BME280;25081;42.698;23.298;2023-08-06T07:14:54;94122.66;;;23.25;68.56
6096;BME280;25081;42.698;23.298;2023-08-06T07:17:05;94123.90;;;23.60;67.37
6096;BME280;25081;42.698;23.298;2023-08-06T07:19:15;94116.98;;;24.48;64.70
6096;BME280;25081;42.698;23.298;2023-08-06T07:21:26;94116.56;;;25.37;61.78
6096;BME280;25081;42.698;23.298;2023-08-06T07:23:36;94119.76;;;26.12;57.50
6096;BME280;25081;42.698;23.298;2023-08-06T07:25:48;94109.64;;;27.47;53.10
6096;BME280;25081;42.698;23.298;2023-08-06T07:27:58;94115.95;;;28.39;50.77
6096;BME280;25081;42.698;23.298;2023-08-06T07:30:10;94111.53;;;28.35;51.36
6096;BME280;25081;42.698;23.298;2023-08-06T07:32:21;94113.62;;;28.32;49.92
6096;BME280;25081;42.698;23.298;2023-08-06T07:34:32;94109.38;;;28.54;49.03
6096;BME280;25081;42.698;23.298;2023-08-06T07:36:44;94113.44;;;28.69;47.37
6096;BME280;25081;42.698;23.298;2023-08-06T07:38:54;94113.28;;;27.51;50.52
6096;BME280;25081;42.698;23.298;2023-08-06T07:41:05;94114.66;;;28.27;48.63
6096;BME280;25081;42.698;23.298;2023-08-06T07:43:16;94108.09;;;29.38;44.79
6096;BME280;25081;42.698;23.298;2023-08-06T07:45:27;94100.46;;;30.53;42.63
6096;BME280;25081;42.698;23.298;2023-08-06T07:47:37;94101.22;;;29.38;43.66
6096;BME280;25081;42.698;23.298;2023-08-06T07:49:48;94100.94;;;28.62;46.66
6096;BME280;25081;42.698;23.298;2023-08-06T07:51:58;94102.99;;;29.27;45.35
6096;BME280;25081;42.698;23.298;2023-08-06T07:54:08;94106.21;;;29.32;45.55
6096;BME280;25081;42.698;23.298;2023-08-06T07:56:19;94099.05;;;28.57;46.63
6096;BME280;25081;42.698;23.298;2023-08-06T07:58:29;94097.34;;;27.88;48.84
6096;BME280;25081;42.698;23.298;2023-08-06T08:00:41;94104.23;;;27.19;50.60
6096;BME280;25081;42.698;23.298;2023-08-06T08:02:52;94111.39;;;26.33;52.29
6096;BME280;25081;42.698;23.298;2023-08-06T08:05:04;94098.48;;;27.08;51.90
6096;BME280;25081;42.698;23.298;2023-08-06T08:07:15;94100.16;;;28.91;47.05
6096;BME280;25081;42.698;23.298;2023-08-06T08:09:25;94098.73;;;29.75;44.06
6096;BME280;25081;42.698;23.298;2023-08-06T08:11:36;94089.83;;;30.98;40.69
6096;BME280;25081;42.698;23.298;2023-08-06T08:13:46;94084.63;;;30.60;41.84
6096;BME280;25081;42.698;23.298;2023-08-06T08:15:58;94093.31;;;30.32;42.67
6096;BME280;25081;42.698;23.298;2023-08-06T08:18:09;94085.44;;;30.47;42.88
6096;BME280;25081;42.698;23.298;2023-08-06T08:20:20;94089.96;;;30.62;41.97
6096;BME280;25081;42.698;23.298;2023-08-06T08:22:30;94082.52;;;31.17;41.23
6096;BME280;25081;42.698;23.298;2023-08-06T08:24:40;94085.01;;;31.70;39.95
6096;BME280;25081;42.698;23.298;2023-08-06T08:26:51;94080.52;;;31.95;39.30
6096;BME280;25081;42.698;23.298;2023-08-06T08:29:01;94089.13;;;30.71;41.55
6096;BME280;25081;42.698;23.298;2023-08-06T08:31:12;94089.53;;;30.43;42.83
6096;BME280;25081;42.698;23.298;2023-08-06T08:33:23;94083.55;;;30.68;42.32
6096;BME280;25081;42.698;23.298;2023-08-06T08:35:33;94088.06;;;31.57;40.06
6096;BME280;25081;42.698;23.298;2023-08-06T08:37:44;94093.55;;;31.33;40.03
6096;BME280;25081;42.698;23.298;2023-08-06T08:39:54;94084.64;;;32.61;38.59
6096;BME280;25081;42.698;23.298;2023-08-06T08:42:06;94082.25;;;32.97;36.53
6096;BME280;25081;42.698;23.298;2023-08-06T08:44:16;94079.29;;;32.93;36.74
6096;BME280;25081;42.698;23.298;2023-08-06T08:46:27;94083.14;;;31.77;38.79
6096;BME280;25081;42.698;23.298;2023-08-06T08:48:38;94076.13;;;32.22;37.85
6096;BME280;25081;42.698;23.298;2023-08-06T08:50:49;94078.52;;;32.58;37.74
6096;BME280;25081;42.698;23.298;2023-08-06T08:52:59;94079.31;;;32.58;37.56
6096;BME280;25081;42.698;23.298;2023-08-06T08:55:11;94068.51;;;33.22;35.36
6096;BME280;25081;42.698;23.298;2023-08-06T08:57:21;94073.16;;;32.48;36.46
6096;BME280;25081;42.698;23.298;2023-08-06T08:59:32;94071.86;;;32.00;38.20
6096;BME280;25081;42.698;23.298;2023-08-06T09:01:42;94070.67;;;31.50;39.07
6096;BME280;25081;42.698;23.298;2023-08-06T09:03:53;94075.80;;;31.51;39.46
6096;BME280;25081;42.698;23.298;2023-08-06T09:06:04;94064.04;;;31.78;38.66
6096;BME280;25081;42.698;23.298;2023-08-06T09:08:15;94063.67;;;31.83;38.40
6096;BME280;25081;42.698;23.298;2023-08-06T09:10:24;94061.62;;;31.49;39.37
6096;BME280;25081;42.698;23.298;2023-08-06T09:12:35;94062.27;;;31.76;39.04
6096;BME280;25081;42.698;23.298;2023-08-06T09:14:45;94060.00;;;31.69;39.03
6096;BME280;25081;42.698;23.298;2023-08-06T09:16:56;94055.00;;;31.81;38.75
6096;BME280;25081;42.698;23.298;2023-08-06T09:19:10;94048.59;;;31.70;39.42
6096;BME280;25081;42.698;23.298;2023-08-06T09:21:20;94047.75;;;33.01;35.69
6096;BME280;25081;42.698;23.298;2023-08-06T09:23:31;94046.58;;;32.53;36.90
6096;BME280;25081;42.698;23.298;2023-08-06T09:25:42;94051.71;;;33.14;35.70
6096;BME280;25081;42.698;23.298;2023-08-06T09:27:52;94042.81;;;33.08;35.17
6096;BME280;25081;42.698;23.298;2023-08-06T09:30:04;94044.45;;;33.30;34.56
6096;BME280;25081;42.698;23.298;2023-08-06T09:32:14;94043.63;;;33.29;34.25
6096;BME280;25081;42.698;23.298;2023-08-06T09:34:24;94037.84;;;31.78;36.03
6096;BME280;25081;42.698;23.298;2023-08-06T09:36:35;94039.82;;;31.33;37.21
6096;BME280;25081;42.698;23.298;2023-08-06T09:38:45;94038.06;;;31.83;36.13
6096;BME280;25081;42.698;23.298;2023-08-06T09:40:56;94025.03;;;32.07;36.04
6096;BME280;25081;42.698;23.298;2023-08-06T09:43:06;94022.20;;;32.73;34.71
6096;BME280;25081;42.698;23.298;2023-08-06T09:45:17;94012.95;;;31.95;36.97
6096;BME280;25081;42.698;23.298;2023-08-06T09:47:27;94020.98;;;32.63;34.93
6096;BME280;25081;42.698;23.298;2023-08-06T09:49:44;94024.53;;;32.67;34.18
6096;BME280;25081;42.698;23.298;2023-08-06T09:51:55;94029.34;;;32.36;35.03
6096;BME280;25081;42.698;23.298;2023-08-06T09:54:06;94026.22;;;32.10;34.99
6096;BME280;25081;42.698;23.298;2023-08-06T09:56:16;94032.78;;;32.60;33.30
6096;BME280;25081;42.698;23.298;2023-08-06T09:58:26;94023.88;;;31.81;34.46
6096;BME280;25081;42.698;23.298;2023-08-06T10:00:37;94027.36;;;31.26;35.56
6096;BME280;25081;42.698;23.298;2023-08-06T10:02:48;94028.58;;;30.25;36.14
6096;BME280;25081;42.698;23.298;2023-08-06T10:04:58;94041.23;;;29.63;37.23
6096;BME280;25081;42.698;23.298;2023-08-06T10:07:09;94037.83;;;29.60;37.87
6096;BME280;25081;42.698;23.298;2023-08-06T10:09:19;94042.09;;;28.98;38.78
6096;BME280;25081;42.698;23.298;2023-08-06T10:11:30;94050.54;;;28.80;40.60
6096;BME280;25081;42.698;23.298;2023-08-06T10:13:41;94050.95;;;28.14;41.87
6096;BME280;25081;42.698;23.298;2023-08-06T10:15:51;94051.27;;;27.84;42.68
6096;BME280;25081;42.698;23.298;2023-08-06T10:18:02;94048.05;;;28.07;42.52
6096;BME280;25081;42.698;23.298;2023-08-06T10:20:12;94049.38;;;28.81;40.93
6096;BME280;25081;42.698;23.298;2023-08-06T10:22:23;94032.13;;;29.59;39.94
6096;BME280;25081;42.698;23.298;2023-08-06T10:24:48;94039.11;;;29.66;39.95
6096;BME280;25081;42.698;23.298;2023-08-06T10:26:59;94048.73;;;28.97;41.34
6096;BME280;25081;42.698;23.298;2023-08-06T10:29:37;94051.05;;;28.86;41.64
6096;BME280;25081;42.698;23.298;2023-08-06T10:31:58;94045.02;;;28.47;43.29
6096;BME280;25081;42.698;23.298;2023-08-06T10:34:07;94056.87;;;28.84;42.19
6096;BME280;25081;42.698;23.298;2023-08-06T10:36:18;94058.30;;;29.17;41.67
6096;BME280;25081;42.698;23.298;2023-08-06T10:38:28;94054.45;;;28.69;41.48
6096;BME280;25081;42.698;23.298;2023-08-06T10:40:40;94059.28;;;28.47;41.56
6096;BME280;25081;42.698;23.298;2023-08-06T10:42:50;94061.53;;;28.70;41.67
6096;BME280;25081;42.698;23.298;2023-08-06T10:45:15;94066.95;;;28.28;43.19
6096;BME280;25081;42.698;23.298;2023-08-06T10:47:28;94069.17;;;27.97;44.19
6096;BME280;25081;42.698;23.298;2023-08-06T10:49:39;94074.34;;;27.83;44.92
6096;BME280;25081;42.698;23.298;2023-08-06T10:51:49;94084.02;;;27.55;44.57
6096;BME280;25081;42.698;23.298;2023-08-06T10:54:00;94080.84;;;27.37;45.84
6096;BME280;25081;42.698;23.298;2023-08-06T10:56:14;94088.85;;;27.52;45.34
6096;BME280;25081;42.698;23.298;2023-08-06T10:58:24;94081.50;;;27.40;46.04
6096;BME280;25081;42.698;23.298;2023-08-06T11:00:35;94085.39;;;27.39;45.46
6096;BME280;25081;42.698;23.298;2023-08-06T11:02:47;94093.53;;;27.51;45.36
6096;BME280;25081;42.698;23.298;2023-08-06T11:04:58;94085.84;;;27.25;46.12
6096;BME280;25081;42.698;23.298;2023-08-06T11:07:09;94087.61;;;27.81;45.78
6096;BME280;25081;42.698;23.298;2023-08-06T11:09:19;94096.42;;;27.58;45.47
6096;BME280;25081;42.698;23.298;2023-08-06T11:11:30;94100.51;;;27.33;45.76
6096;BME280;25081;42.698;23.298;2023-08-06T11:13:40;94115.02;;;27.27;46.23
6096;BME280;25081;42.698;23.298;2023-08-06T11:15:51;94109.87;;;26.82;47.30
6096;BME280;25081;42.698;23.298;2023-08-06T11:18:01;94115.02;;;26.56;48.25
6096;BME280;25081;42.698;23.298;2023-08-06T11:20:12;94110.20;;;26.12;49.55
6096;BME280;25081;42.698;23.298;2023-08-06T11:22:23;94123.88;;;25.94;50.05
6096;BME280;25081;42.698;23.298;2023-08-06T11:24:33;94128.12;;;25.79;51.18
6096;BME280;25081;42.698;23.298;2023-08-06T11:26:44;94124.33;;;26.02;50.98
6096;BME280;25081;42.698;23.298;2023-08-06T11:28:55;94125.59;;;25.99;52.49
6096;BME280;25081;42.698;23.298;2023-08-06T11:31:05;94126.24;;;26.20;52.66
6096;BME280;25081;42.698;23.298;2023-08-06T11:33:17;94125.27;;;25.88;52.84